createdAt,value
2022-10-07T00:00:24.722Z,11.07
2022-10-07T00:03:32.590Z,13.20
2022-10-07T00:06:38.535Z,9.30
2022-10-07T00:09:48.022Z,9.27
2022-10-07T00:12:53.621Z,9.20
2022-10-07T00:16:07.367Z,9.90
2022-10-07T00:19:16.133Z,11.03
2022-10-07T00:22:22.708Z,9.70
2022-10-07T00:25:31.032Z,10.77
2022-10-07T00:28:38.523Z,8.87
2022-10-07T00:31:44.668Z,10.07
2022-10-07T00:34:51.137Z,10.57
2022-10-07T00:37:56.930Z,10.60
2022-10-07T00:41:06.808Z,13.27
2022-10-07T00:44:38.802Z,9.20
2022-10-07T00:47:48.648Z,11.03
2022-10-07T00:50:56.865Z,9.27
2022-10-07T00:54:06.599Z,9.73
2022-10-07T00:57:15.367Z,10.53
2022-10-07T01:00:23.634Z,12.13
2022-10-07T01:03:29.237Z,8.07
2022-10-07T01:06:38.305Z,11.63
2022-10-07T01:09:44.544Z,10.37
2022-10-07T01:13:07.177Z,9.90
2022-10-07T01:16:21.858Z,9.63
2022-10-07T01:20:00.451Z,11.93
2022-10-07T01:23:44.540Z,9.97
2022-10-07T01:26:58.428Z,11.17
2022-10-07T01:30:09.581Z,8.23
2022-10-07T01:33:20.494Z,11.20
2022-10-07T01:36:28.226Z,13.37
2022-10-07T01:39:42.865Z,10.47
2022-10-07T01:42:52.839Z,9.83
2022-10-07T01:45:59.986Z,10.37
2022-10-07T01:49:09.714Z,14.40
2022-10-07T01:52:42.638Z,14.80
2022-10-07T01:55:58.510Z,16.17
2022-10-07T01:59:27.573Z,12.70
2022-10-07T02:02:48.299Z,15.73
2022-10-07T02:06:00.855Z,13.40
2022-10-07T02:09:21.426Z,14.70
2022-10-07T02:12:37.356Z,12.87
2022-10-07T02:15:50.903Z,12.97
2022-10-07T02:18:58.694Z,15.40
2022-10-07T02:22:06.992Z,16.37
2022-10-07T02:25:17.671Z,16.63
2022-10-07T02:28:27.341Z,13.97
2022-10-07T02:31:38.196Z,18.33
2022-10-07T02:34:46.509Z,18.60
2022-10-07T02:37:56.680Z,15.63
2022-10-07T02:41:09.135Z,19.80
2022-10-07T02:44:26.068Z,16.23
2022-10-07T02:47:41.371Z,17.77
2022-10-07T02:50:53.327Z,20.63
2022-10-07T02:54:03.897Z,15.73
2022-10-07T02:57:12.163Z,17.00
2022-10-07T03:00:19.115Z,15.10
2022-10-07T03:03:33.462Z,13.10
2022-10-07T03:06:43.101Z,15.80
2022-10-07T03:09:49.991Z,13.00
2022-10-07T03:12:55.973Z,16.13
2022-10-07T03:16:05.652Z,19.40
2022-10-07T03:19:14.536Z,16.17
2022-10-07T03:22:31.587Z,17.23
2022-10-07T03:25:38.693Z,17.07
2022-10-07T03:28:45.343Z,21.20
2022-10-07T03:31:51.673Z,15.23
2022-10-07T03:35:00.936Z,17.40
2022-10-07T03:38:10.114Z,16.93
2022-10-07T03:41:19.226Z,20.57
2022-10-07T03:44:28.148Z,13.37
2022-10-07T03:47:36.346Z,15.60
2022-10-07T03:50:52.359Z,16.63
2022-10-07T03:54:01.119Z,15.53
2022-10-07T03:57:31.362Z,18.87
2022-10-07T04:00:40.465Z,13.27
2022-10-07T04:03:46.580Z,14.57
2022-10-07T04:06:56.150Z,14.40
2022-10-07T04:10:03.952Z,11.20
2022-10-07T04:13:10.485Z,11.43
2022-10-07T04:16:16.224Z,13.03
2022-10-07T04:19:22.750Z,16.17
2022-10-07T04:22:31.236Z,13.13
2022-10-07T04:25:38.742Z,14.33
2022-10-07T04:28:49.678Z,12.37
2022-10-07T04:31:59.249Z,11.47
2022-10-07T04:35:07.818Z,9.40
2022-10-07T04:38:18.275Z,9.50
2022-10-07T04:41:25.827Z,8.93
2022-10-07T04:44:32.627Z,9.03
2022-10-07T04:47:44.335Z,10.63
2022-10-07T04:50:52.103Z,13.03
2022-10-07T04:54:03.746Z,11.90
2022-10-07T04:57:28.408Z,12.50
2022-10-07T05:00:36.069Z,12.83
2022-10-07T05:03:43.805Z,10.97
2022-10-07T05:06:50.199Z,10.57
2022-10-07T05:09:59.760Z,10.60
2022-10-07T05:13:09.601Z,8.90
2022-10-07T05:16:16.291Z,9.63
2022-10-07T05:19:22.393Z,11.33
2022-10-07T05:22:29.341Z,13.23
2022-10-07T05:25:38.471Z,13.37
2022-10-07T05:28:47.111Z,15.40
2022-10-07T05:31:58.781Z,16.23
2022-10-07T05:35:12.147Z,16.37
2022-10-07T05:38:18.014Z,15.10
2022-10-07T05:41:28.442Z,14.73
2022-10-07T05:44:35.380Z,12.93
2022-10-07T05:47:43.841Z,13.07
2022-10-07T05:50:50.914Z,11.93
2022-10-07T05:53:58.578Z,11.57
2022-10-07T05:57:13.535Z,11.17
2022-10-07T06:00:21.149Z,14.40
2022-10-07T06:03:30.088Z,9.70
2022-10-07T06:06:38.860Z,12.20
2022-10-07T06:10:03.766Z,8.53
2022-10-07T06:13:14.159Z,10.63
2022-10-07T06:16:27.373Z,12.67
2022-10-07T06:19:34.532Z,10.87
2022-10-07T06:22:43.099Z,10.10
2022-10-07T06:25:55.934Z,13.13
2022-10-07T06:29:07.138Z,12.10
2022-10-07T06:32:13.850Z,14.20
2022-10-07T06:35:20.670Z,11.70
2022-10-07T06:38:29.360Z,17.13
2022-10-07T06:41:35.079Z,12.87
2022-10-07T06:44:53.991Z,13.33
2022-10-07T06:48:03.895Z,13.63
2022-10-07T06:51:15.751Z,11.93
2022-10-07T06:54:21.923Z,10.50
2022-10-07T06:57:44.936Z,11.17
2022-10-07T07:00:55.263Z,13.93
2022-10-07T07:04:03.705Z,12.87
2022-10-07T07:07:10.382Z,14.03
2022-10-07T07:10:18.852Z,15.47
2022-10-07T07:13:29.666Z,12.60
2022-10-07T07:16:39.190Z,14.20
2022-10-07T07:19:44.965Z,15.40
2022-10-07T07:22:52.581Z,10.50
2022-10-07T07:25:58.319Z,11.53
2022-10-07T07:29:12.536Z,12.07
2022-10-07T07:32:30.303Z,14.43
2022-10-07T07:35:41.644Z,9.80
2022-10-07T07:38:54.011Z,10.77
2022-10-07T07:42:04.047Z,10.27
2022-10-07T07:45:12.399Z,9.27
2022-10-07T07:48:22.027Z,7.90
2022-10-07T07:51:28.613Z,7.30
2022-10-07T07:54:37.761Z,7.67
2022-10-07T07:57:44.251Z,6.27
2022-10-07T08:01:01.098Z,5.90
2022-10-07T08:04:13.761Z,5.93
2022-10-07T08:07:20.498Z,8.10
2022-10-07T08:10:29.203Z,5.93
2022-10-07T08:13:36.650Z,6.13
2022-10-07T08:16:43.639Z,8.03
2022-10-07T08:19:56.377Z,4.83
2022-10-07T08:23:03.507Z,5.03
2022-10-07T08:26:12.942Z,5.27
2022-10-07T08:29:19.617Z,4.87
2022-10-07T08:32:26.359Z,5.47
2022-10-07T08:35:34.772Z,5.20
2022-10-07T08:38:43.462Z,5.60
2022-10-07T08:41:57.559Z,5.83
2022-10-07T08:45:08.720Z,5.03
2022-10-07T08:48:20.072Z,5.50
2022-10-07T08:51:37.812Z,5.63
2022-10-07T08:54:59.440Z,5.70
2022-10-07T08:58:45.713Z,4.80
2022-10-07T09:02:23.018Z,5.13
2022-10-07T09:05:47.360Z,4.67
2022-10-07T09:09:18.006Z,4.40
2022-10-07T09:12:46.896Z,4.13
2022-10-07T09:16:15.001Z,4.60
2022-10-07T09:19:46.660Z,4.07
2022-10-07T09:23:08.754Z,7.20
2022-10-07T09:26:37.962Z,4.83
2022-10-07T09:30:04.075Z,4.67
2022-10-07T09:33:27.982Z,5.47
2022-10-07T09:37:13.893Z,5.50
2022-10-07T09:40:59.007Z,6.00
2022-10-07T09:44:29.475Z,4.93
2022-10-07T09:47:54.682Z,5.13
2022-10-07T09:51:17.102Z,4.17
2022-10-07T09:54:39.510Z,6.83
2022-10-07T09:58:04.331Z,4.47
2022-10-07T10:01:31.269Z,5.17
2022-10-07T10:04:53.894Z,4.10
2022-10-07T10:08:27.187Z,3.63
2022-10-07T10:11:48.332Z,4.27
2022-10-07T10:15:28.898Z,4.00
2022-10-07T10:18:43.255Z,4.60
2022-10-07T10:21:56.319Z,4.40
2022-10-07T10:25:18.548Z,4.50
2022-10-07T10:28:38.521Z,4.07
2022-10-07T10:32:03.972Z,3.40
2022-10-07T10:35:17.750Z,4.33
2022-10-07T10:38:46.628Z,3.47
2022-10-07T10:41:58.009Z,5.40
2022-10-07T10:45:18.539Z,3.63
2022-10-07T10:48:32.459Z,3.73
2022-10-07T10:51:59.474Z,3.37
2022-10-07T10:55:35.533Z,3.97
2022-10-07T10:58:55.718Z,4.07
2022-10-07T11:02:21.926Z,2.80
2022-10-07T11:05:32.226Z,3.47
2022-10-07T11:08:41.863Z,3.83
2022-10-07T11:11:48.983Z,4.00
2022-10-07T11:14:58.431Z,3.23
2022-10-07T11:18:14.577Z,3.23
2022-10-07T11:21:27.860Z,3.10
2022-10-07T11:24:42.351Z,3.00
2022-10-07T11:27:49.849Z,2.90
2022-10-07T11:31:06.407Z,3.07
2022-10-07T11:34:19.723Z,3.17
2022-10-07T11:37:34.163Z,2.20
2022-10-07T11:40:46.908Z,2.47
2022-10-07T11:43:57.227Z,2.77
2022-10-07T11:47:06.366Z,2.03
2022-10-07T11:50:19.966Z,2.10
2022-10-07T11:53:29.155Z,2.53
2022-10-07T11:56:48.313Z,2.33
2022-10-07T12:00:01.079Z,2.30
2022-10-07T12:03:50.465Z,3.83
2022-10-07T12:07:33.382Z,2.73
2022-10-07T12:10:39.887Z,2.53
2022-10-07T12:13:49.868Z,2.50
2022-10-07T12:16:58.198Z,2.53
2022-10-07T12:20:46.450Z,2.37
2022-10-07T12:24:17.472Z,3.10
2022-10-07T12:27:27.733Z,2.60
2022-10-07T12:30:52.078Z,2.70
2022-10-07T12:34:00.032Z,2.80
2022-10-07T12:37:44.468Z,2.30
2022-10-07T12:40:55.146Z,2.83
2022-10-07T12:44:08.387Z,2.20
2022-10-07T12:47:25.050Z,2.27
2022-10-07T12:50:33.713Z,2.33
2022-10-07T12:53:44.205Z,4.10
2022-10-07T12:56:53.242Z,2.27
2022-10-07T13:00:08.403Z,2.10
2022-10-07T13:03:38.995Z,3.53
2022-10-07T13:07:24.356Z,2.87
2022-10-07T13:11:14.042Z,2.20
2022-10-07T13:14:26.597Z,2.57
2022-10-07T13:17:44.536Z,2.40
2022-10-07T13:21:08.582Z,2.07
2022-10-07T13:24:18.764Z,2.30
2022-10-07T13:27:29.545Z,2.13
2022-10-07T13:30:40.479Z,1.73
2022-10-07T13:33:46.261Z,2.33
2022-10-07T13:36:55.480Z,2.40
2022-10-07T13:40:22.943Z,2.07
2022-10-07T13:43:32.273Z,2.53
2022-10-07T13:46:39.457Z,3.00
2022-10-07T13:49:48.412Z,6.10
2022-10-07T13:52:58.514Z,2.53
2022-10-07T13:56:18.890Z,2.43
2022-10-07T13:59:25.386Z,2.35
2022-10-07T14:02:36.454Z,2.75
2022-10-07T14:05:52.539Z,2.22
2022-10-07T14:09:03.469Z,3.00
2022-10-07T14:12:14.562Z,2.40
2022-10-07T14:15:24.840Z,3.60
2022-10-07T14:18:32.179Z,2.40
2022-10-07T14:21:43.424Z,3.08
2022-10-07T14:25:03.668Z,2.40
2022-10-07T14:28:19.773Z,3.08
2022-10-07T14:31:45.227Z,2.95
2022-10-07T14:35:07.532Z,3.25
2022-10-07T14:38:23.181Z,2.35
2022-10-07T14:41:34.609Z,2.70
2022-10-07T14:44:44.234Z,3.57
2022-10-07T14:47:51.696Z,2.60
2022-10-07T14:50:57.614Z,2.33
2022-10-07T14:54:06.795Z,3.03
2022-10-07T14:57:15.213Z,3.00
2022-10-07T15:00:24.583Z,3.58
2022-10-07T15:03:31.067Z,3.40
2022-10-07T15:06:39.128Z,3.67
2022-10-07T15:09:44.751Z,2.90
2022-10-07T15:12:54.300Z,2.50
2022-10-07T15:16:00.167Z,3.23
2022-10-07T15:19:09.430Z,3.30
2022-10-07T15:22:15.070Z,2.80
2022-10-07T15:25:22.165Z,2.77
2022-10-07T15:28:31.367Z,2.50
2022-10-07T15:31:38.433Z,2.70
2022-10-07T15:34:46.056Z,2.83
2022-10-07T15:37:53.364Z,2.70
2022-10-07T15:41:00.463Z,3.07
2022-10-07T15:44:16.620Z,2.83
2022-10-07T15:47:22.665Z,3.10
2022-10-07T15:50:29.137Z,3.60
2022-10-07T15:53:36.393Z,2.63
2022-10-07T15:56:43.318Z,3.03
2022-10-07T15:59:53.629Z,3.57
2022-10-07T16:03:04.605Z,3.20
2022-10-07T16:06:12.556Z,2.97
2022-10-07T16:09:18.981Z,3.13
2022-10-07T16:12:24.564Z,5.37
2022-10-07T16:15:35.895Z,3.43
2022-10-07T16:18:44.010Z,4.33
2022-10-07T16:21:50.438Z,4.70
2022-10-07T16:24:56.000Z,4.33
2022-10-07T16:28:18.737Z,3.13
2022-10-07T16:31:27.318Z,4.50
2022-10-07T16:34:34.515Z,4.37
2022-10-07T16:37:40.122Z,4.27
2022-10-07T16:40:54.810Z,6.20
2022-10-07T16:44:01.283Z,6.90
2022-10-07T16:47:11.697Z,6.10
2022-10-07T16:50:17.517Z,7.13
2022-10-07T16:53:23.986Z,5.33
2022-10-07T16:56:30.105Z,6.40
2022-10-07T16:59:36.577Z,9.43
2022-10-07T17:02:45.001Z,10.27
2022-10-07T17:05:58.260Z,7.97
2022-10-07T17:09:07.544Z,8.73
2022-10-07T17:12:14.320Z,9.73
2022-10-07T17:15:20.091Z,8.87
2022-10-07T17:18:31.483Z,9.63
2022-10-07T17:21:40.238Z,9.10
2022-10-07T17:24:46.684Z,9.37
2022-10-07T17:27:52.323Z,8.70
2022-10-07T17:30:59.384Z,9.03
2022-10-07T17:34:10.133Z,11.07
2022-10-07T17:37:16.727Z,11.43
2022-10-07T17:40:22.350Z,8.43
2022-10-07T17:43:28.783Z,9.80
2022-10-07T17:46:37.026Z,7.93
2022-10-07T17:49:46.345Z,11.10
2022-10-07T17:52:51.966Z,8.60
2022-10-07T17:55:58.658Z,9.37
2022-10-07T17:59:07.109Z,6.70
2022-10-07T18:02:13.659Z,7.77
2022-10-07T18:05:22.660Z,7.90
2022-10-07T18:08:29.089Z,8.00
2022-10-07T18:11:56.351Z,7.80
2022-10-07T18:15:18.537Z,10.60
2022-10-07T18:18:24.371Z,10.03
2022-10-07T18:21:34.615Z,9.10
2022-10-07T18:24:40.191Z,9.80
2022-10-07T18:27:47.223Z,9.53
2022-10-07T18:30:53.533Z,9.00
2022-10-07T18:37:40.432Z,8.20
2022-10-07T18:40:46.870Z,10.30
2022-10-07T18:43:52.690Z,10.90
2022-10-07T18:46:59.604Z,8.83
2022-10-07T18:50:08.606Z,9.17
2022-10-07T18:53:17.817Z,8.90
2022-10-07T18:56:25.248Z,9.80
2022-10-07T18:59:31.719Z,8.13
2022-10-07T19:02:37.351Z,11.30
2022-10-07T19:05:44.385Z,8.40
2022-10-07T19:08:55.865Z,8.17
2022-10-07T19:12:03.963Z,8.90
2022-10-07T19:15:07.607Z,10.07
2022-10-07T19:18:14.228Z,10.53
2022-10-07T19:21:21.235Z,11.17
2022-10-07T19:24:42.893Z,11.10
2022-10-07T19:27:48.689Z,12.57
2022-10-07T19:30:56.474Z,12.40
2022-10-07T19:34:04.661Z,11.30
2022-10-07T19:37:11.859Z,10.73
2022-10-07T19:40:20.339Z,9.90
2022-10-07T19:43:26.732Z,8.53
2022-10-07T19:46:34.687Z,12.53
2022-10-07T19:49:41.125Z,9.07
2022-10-07T19:52:47.132Z,8.07
2022-10-07T19:55:57.687Z,9.00
2022-10-07T19:59:06.384Z,8.90
2022-10-07T20:02:14.493Z,10.50
2022-10-07T20:05:20.159Z,9.23
2022-10-07T20:08:26.581Z,7.77
2022-10-07T20:11:37.653Z,8.63
2022-10-07T20:14:44.108Z,8.47
2022-10-07T20:17:50.114Z,7.17
2022-10-07T20:21:03.646Z,8.40
2022-10-07T20:24:10.860Z,7.07
2022-10-07T20:27:20.220Z,7.93
2022-10-07T20:30:25.818Z,9.13
2022-10-07T20:33:34.679Z,8.17
2022-10-07T20:36:42.212Z,7.03
2022-10-07T20:40:05.069Z,11.17
2022-10-07T20:43:13.492Z,10.10
2022-10-07T20:46:20.217Z,12.07
2022-10-07T20:49:28.354Z,10.17
2022-10-07T20:52:38.006Z,9.07
2022-10-07T20:55:43.561Z,10.63
2022-10-07T20:58:53.495Z,10.93
2022-10-07T21:01:59.515Z,11.43
2022-10-07T21:05:08.107Z,14.67
2022-10-07T21:08:13.911Z,11.83
2022-10-07T21:11:20.556Z,13.57
2022-10-07T21:14:29.605Z,13.93
2022-10-07T21:17:36.837Z,10.23
2022-10-07T21:20:56.510Z,11.37
2022-10-07T21:24:03.940Z,14.43
2022-10-07T21:27:11.625Z,12.97
2022-10-07T21:30:21.051Z,15.17
2022-10-07T21:33:27.591Z,14.87
2022-10-07T21:36:34.253Z,13.37
2022-10-07T21:39:40.197Z,14.53
2022-10-07T21:42:47.224Z,18.30
2022-10-07T21:45:55.798Z,13.33
2022-10-07T21:49:03.450Z,12.27
2022-10-07T21:52:09.031Z,13.80
2022-10-07T21:55:15.488Z,11.83
2022-10-07T21:58:21.973Z,11.20
2022-10-07T22:01:32.280Z,12.97
2022-10-07T22:04:37.979Z,12.20
2022-10-07T22:08:03.474Z,12.53
2022-10-07T22:11:12.131Z,10.83
2022-10-07T22:14:19.245Z,9.73
2022-10-07T22:17:27.681Z,10.83
2022-10-07T22:20:36.735Z,14.87
2022-10-07T22:23:42.720Z,9.77
2022-10-07T22:26:51.550Z,11.83
2022-10-07T22:29:57.280Z,11.17
2022-10-07T22:33:06.907Z,10.77
2022-10-07T22:36:14.981Z,11.50
2022-10-07T22:39:21.398Z,11.87
2022-10-07T22:42:27.006Z,9.67
2022-10-07T22:45:34.003Z,11.00
2022-10-07T22:48:43.431Z,11.43
2022-10-07T22:51:49.897Z,10.70
2022-10-07T22:54:55.514Z,9.80
2022-10-07T22:58:03.319Z,10.37
2022-10-07T23:01:10.664Z,11.33
2022-10-07T23:04:20.461Z,12.33
2022-10-07T23:07:26.157Z,11.30
2022-10-07T23:10:32.685Z,10.07
2022-10-07T23:13:39.991Z,12.80
2022-10-07T23:16:46.410Z,10.17
2022-10-07T23:19:54.731Z,12.63
2022-10-07T23:23:01.186Z,12.57
2022-10-07T23:26:13.901Z,11.17
2022-10-07T23:29:20.818Z,11.90
2022-10-07T23:32:26.414Z,11.57
2022-10-07T23:35:35.641Z,10.60
2022-10-07T23:38:44.882Z,10.07
2022-10-07T23:41:51.672Z,11.47
2022-10-07T23:44:57.712Z,12.70
2022-10-07T23:48:04.630Z,13.30
2022-10-07T23:51:14.871Z,11.97
2022-10-07T23:54:21.284Z,13.13
2022-10-07T23:57:26.856Z,13.67
